Dane County Regional Truax Field
KMSN : rendu visible

Aérodrome :











RETROUVEZ-NOUS SUR...

 
LOGIN :

S'inscrire | Disclaimer

   EN    FR    IT 

 









Légende :    VFR   VFR Marginal   IFR   IFR Intensif   IFR Très Intensif
Visi : 
Plafond : 
>= 8 km
>= 3000ft
5 à 8 km
1000 à 3000 ft
1500m à 5 km
500 à 1000 ft
800 à 1500m
200 à 500 ft
< 800m
< 200 ft
Symboles :   Orages  Brouillard  Fortes neiges  Fortes précipitations  Vent > 20 kt






- Altitude de l'aérodrome : 887 ft
- Code IATA : MSN


KMSN - Dane County Regional Truax Field

DERNIER METAR :
  • 121753Z 31008KT 10SM CLR M10/M19 A3047 RMK AO2 SLP337 4/001 T11001189 11100 21156 58009

METARs EXPIRÉS :
  • 121653Z 31010KT 10SM FEW024 M11/M19 A3049 RMK AO2 SLP346 T11111189
  • 121553Z 31008KT 10SM FEW018 M12/M18 A3050 RMK AO2 SLP347 T11171183

TAF KMSN
Valide du 12 à 18h jusqu'au 13 à 18h UTC


121720Z 1218/1318 31010KT P6SM SKC
FM122200 25006KT P6SM SKC
FM130100 21005KT P6SM SCT150
FM130800 18010KT P6SM BKN120
FM131300 18012G20KT P6SM BKN100



MET'MAP, la Météo Aéronautique d'un coup d'oeil ! - Copyright ORBIFLY Décembre 2007 - Disclaimer

ORBIFLY MET'MAP TEAM :

Programmation & Développement : Alexandra Zaïnal
Conception & Développement : Baudouin d'Aumeries
Co-Programmation & Développement : Marc-Olivier Méhu
Soutien technique & logistique : Manuel Goepfert

Contact : metmap@orbifly.com




SOURCES & CREDITS :

   NOAA       Earth
Advisory